• vieta
  • image
  • image
  • image
mod_vvisit_countermod_vvisit_countermod_vvisit_countermod_vvisit_countermod_vvisit_countermod_vvisit_countermod_vvisit_counter
mod_vvisit_counterŠiandien548
mod_vvisit_counterVakar1017
mod_vvisit_counterŠią savaitę1565
mod_vvisit_counterPraėjusią savaitę5315
mod_vvisit_counterŠį mėnesį17365
mod_vvisit_counterPraėjusį mėnesį23031
mod_vvisit_counterViso1003322

Mes turime: 25 svečius, 1 bots online
Jūsų IP: 54.166.207.223
 , 
Šiandien: Spa 23, 2018
Oro uostas / Informacija keleiviams / Taisyklės / Pasienio kontrolė

Pasienio kontrolė

Šiame skyriuje Jums pateikiame naudingą nuorodą į Valstybės sienos apsaugos tarnybos (VSAT) internetinę svetainę, kurioje rasite aktualios informacijos, tokios kaip: bendroji informacija, ką reikia žinoti keliaujant su vaiku, asmens tapatybės kortelės, vizos ir kitą.

Minėta informaciją rasite čia: Valstybės sienos apsaugos tarnyba

Šiandien

Antradienis, 23 Spalis 2018

Orų prognozė aviacijai

[source: ADDS]
METAR
EYSA 231750Z 25009KT 9999 FEW013 SCT020 BKN033 07/06 Q0984 WHT TEMPO SCT011 BKN023 GRN =
TAF EYSA 231711Z 2318/2403 27014KT 9000 BKN025 TEMPO 2318/2324 5000 SHRA SCT005 BKN015CB TEMPO 2400/2403 30024G34KT BKN015CB
TAF
TAF EYSA 231711Z 2318/2403 27014KT 9000 BKN025 TEMPO 2318/2324 5000 SHRA SCT005 BKN015CB TEMPO 2400/2403 30024G34KT BKN015CB =
SR / SS: 05:14 / 15:10 UTC (EYSA 2018-10-23)

Paieška

Lankytojai

Mes turime 26 svečius online

tic logo lt